Time;durP1;ratioP1;P1;durP2;ratioP2;P2;SDS_P1;SDS_P2;PMS_P1;PMS_P2;Temp;Humidity;BMP_temperature;BMP_pressure;BME280_temperature;BME280_humidity;BME280_pressure;Samples;Min_cycle;Max_cycle;Signal;HPM_P1;HPM_P2
2021/01/12 00:00:46;;;;;;;3.95;1.33;;;;;;;;;;5113795;28;20497;-80
2021/01/12 00:03:12;;;;;;;5.43;1.27;;;;;;;;;;5113866;28;20506;-79
2021/01/12 00:05:38;;;;;;;5.13;1.13;;;;;;;;;;5112135;28;20073;-80
2021/01/12 00:08:07;;;;;;;4.28;0.93;;;;;;;;;;5113538;28;20032;-80
2021/01/12 00:10:34;;;;;;;6.07;1.33;;;;;;;;;;5113756;28;20027;-80
2021/01/12 00:13:00;;;;;;;6.43;1.50;;;;;;;;;;5113958;28;20032;-80
2021/01/12 00:15:26;;;;;;;3.42;1.17;;;;;;;;;;5113205;28;20034;-80
2021/01/12 00:17:52;;;;;;;4.22;1.80;;;;;;;;;;5113529;28;20019;-80
2021/01/12 00:20:19;;;;;;;5.07;1.08;;;;;;;;;;5113655;28;20028;-80
2021/01/12 00:22:46;;;;;;;3.60;1.10;;;;;;;;;;5113425;28;20020;-80
2021/01/12 00:25:13;;;;;;;3.60;1.00;;;;;;;;;;5113392;28;20475;-80
2021/01/12 00:27:39;;;;;;;2.90;0.80;;;;;;;;;;5113029;28;20016;-80
2021/01/12 00:30:06;;;;;;;2.97;1.10;;;;;;;;;;5113522;28;20028;-80
2021/01/12 00:32:32;;;;;;;6.13;1.00;;;;;;;;;;5113712;28;20027;-80
2021/01/12 00:34:58;;;;;;;2.85;0.80;;;;;;;;;;5113732;28;20486;-80
2021/01/12 00:37:25;;;;;;;3.08;0.88;;;;;;;;;;5112915;28;20490;-80
2021/01/12 00:39:52;;;;;;;3.72;1.30;;;;;;;;;;5113015;28;20537;-80
2021/01/12 00:42:18;;;;;;;4.65;0.90;;;;;;;;;;5112666;28;20399;-79
2021/01/12 00:44:44;;;;;;;4.20;1.33;;;;;;;;;;5113031;28;20024;-79
2021/01/12 00:47:11;;;;;;;2.63;0.90;;;;;;;;;;5094980;28;20055;-79
2021/01/12 00:49:37;;;;;;;4.82;1.00;;;;;;;;;;5094543;28;20502;-79
2021/01/12 00:52:12;;;;;;;3.90;0.93;;;;;;;;;;5094855;28;20031;-80
2021/01/12 00:54:38;;;;;;;3.00;0.80;;;;;;;;;;5112707;28;20400;-79
2021/01/12 00:57:04;;;;;;;3.92;1.02;;;;;;;;;;5112750;28;20035;-79
2021/01/12 00:59:31;;;;;;;4.68;0.90;;;;;;;;;;5113508;28;20497;-79
2021/01/12 01:02:05;;;;;;;3.47;0.75;;;;;;;;;;5094438;28;20433;-79
2021/01/12 01:04:31;;;;;;;3.17;1.20;;;;;;;;;;5112667;28;20114;-79
2021/01/12 01:06:57;;;;;;;3.58;0.90;;;;;;;;;;5113078;28;20061;-80
2021/01/12 01:09:24;;;;;;;2.58;0.73;;;;;;;;;;5094713;28;20036;-79
2021/01/12 01:11:51;;;;;;;3.92;1.23;;;;;;;;;;5094486;28;20027;-80
2021/01/12 01:14:17;;;;;;;3.75;1.00;;;;;;;;;;5112325;28;20061;-80
2021/01/12 01:16:44;;;;;;;3.80;0.85;;;;;;;;;;5113007;28;20081;-80
2021/01/12 01:19:10;;;;;;;3.45;1.08;;;;;;;;;;5112921;28;20027;-79
2021/01/12 01:21:36;;;;;;;5.00;1.08;;;;;;;;;;5112306;28;20517;-79
2021/01/12 01:24:03;;;;;;;5.72;1.02;;;;;;;;;;5112400;28;20022;-77
2021/01/12 01:26:29;;;;;;;2.72;0.90;;;;;;;;;;5113003;28;20031;-79
2021/01/12 01:28:56;;;;;;;2.72;1.00;;;;;;;;;;5112338;28;20487;-79
2021/01/12 01:31:23;;;;;;;4.78;0.70;;;;;;;;;;5112232;28;20452;-79
2021/01/12 01:33:49;;;;;;;3.95;0.98;;;;;;;;;;5093707;28;20031;-79
2021/01/12 01:36:15;;;;;;;4.00;0.80;;;;;;;;;;5111710;28;20090;-80
2021/01/12 01:38:41;;;;;;;3.63;0.93;;;;;;;;;;5073071;28;20024;-79
2021/01/12 01:41:08;;;;;;;4.82;0.98;;;;;;;;;;5091851;28;20032;-80
2021/01/12 01:43:36;;;;;;;3.17;0.75;;;;;;;;;;5091564;28;20038;-80
2021/01/12 01:46:02;;;;;;;2.30;0.93;;;;;;;;;;5091550;28;20067;-79
2021/01/12 01:48:28;;;;;;;2.80;0.70;;;;;;;;;;5091619;28;20032;-79
2021/01/12 01:50:54;;;;;;;3.22;0.82;;;;;;;;;;5091423;28;20107;-79
2021/01/12 01:53:20;;;;;;;3.95;0.98;;;;;;;;;;5073385;28;20384;-78
2021/01/12 01:55:51;;;;;;;2.72;0.70;;;;;;;;;;5091249;28;20035;-79
2021/01/12 01:58:17;;;;;;;3.00;0.80;;;;;;;;;;5091492;28;20420;-79
2021/01/12 02:00:44;;;;;;;2.35;0.65;;;;;;;;;;5091116;28;20380;-79
2021/01/12 02:03:15;;;;;;;4.15;0.70;;;;;;;;;;5091513;28;20024;-79
2021/01/12 02:05:41;;;;;;;4.22;0.90;;;;;;;;;;5105616;28;20604;-79
2021/01/12 02:08:09;;;;;;;3.17;0.82;;;;;;;;;;5111747;28;20463;-79
2021/01/12 02:10:41;;;;;;;4.47;0.80;;;;;;;;;;5111421;28;20088;-79
2021/01/12 02:13:10;;;;;;;2.65;0.60;;;;;;;;;;5111273;28;20507;-79
2021/01/12 02:15:37;;;;;;;3.38;0.80;;;;;;;;;;5111241;28;20027;-79
2021/01/12 02:18:03;;;;;;;2.80;0.85;;;;;;;;;;5110982;28;20207;-79
2021/01/12 02:20:29;;;;;;;2.72;0.68;;;;;;;;;;5111632;28;20027;-79
2021/01/12 02:23:13;;;;;;;3.20;0.70;;;;;;;;;;5110995;28;20069;-78
2021/01/12 02:25:40;;;;;;;3.28;0.90;;;;;;;;;;5111252;28;20031;-78
2021/01/12 02:28:08;;;;;;;1.27;0.40;;;;;;;;;;5111237;28;20053;-78
2021/01/12 02:30:34;;;;;;;2.83;0.60;;;;;;;;;;5110999;28;20053;-78
2021/01/12 02:33:00;;;;;;;2.22;0.77;;;;;;;;;;5111788;28;20016;-79
2021/01/12 02:35:28;;;;;;;4.10;0.60;;;;;;;;;;5110997;28;20038;-79
2021/01/12 02:37:55;;;;;;;2.42;0.70;;;;;;;;;;5111061;28;20429;-79
2021/01/12 02:40:21;;;;;;;2.42;0.60;;;;;;;;;;5111439;28;20390;-79
2021/01/12 02:42:47;;;;;;;1.48;0.38;;;;;;;;;;5111267;28;20023;-81
2021/01/12 02:45:13;;;;;;;2.65;0.50;;;;;;;;;;5111154;28;20436;-80
2021/01/12 02:47:39;;;;;;;2.78;0.60;;;;;;;;;;5110993;28;20051;-80
2021/01/12 02:50:06;;;;;;;2.35;1.02;;;;;;;;;;5111431;28;20028;-80
2021/01/12 02:52:32;;;;;;;1.70;0.50;;;;;;;;;;5111133;28;20433;-80
2021/01/12 02:54:58;;;;;;;1.55;0.50;;;;;;;;;;5111303;28;20035;-78
2021/01/12 02:57:24;;;;;;;2.03;0.40;;;;;;;;;;5111115;28;20076;-77
2021/01/12 02:59:50;;;;;;;1.13;0.63;;;;;;;;;;5110772;28;20023;-78
2021/01/12 03:02:17;;;;;;;1.60;0.88;;;;;;;;;;5111210;28;20023;-78
2021/01/12 03:04:43;;;;;;;1.33;0.38;;;;;;;;;;5110462;28;20019;-78
2021/01/12 03:07:09;;;;;;;0.82;0.40;;;;;;;;;;5110480;28;20024;-79
2021/01/12 03:09:35;;;;;;;2.03;0.40;;;;;;;;;;5110791;28;20173;-79
2021/01/12 03:12:01;;;;;;;1.83;0.70;;;;;;;;;;5111178;28;20479;-80
2021/01/12 03:14:27;;;;;;;0.70;0.30;;;;;;;;;;5111452;28;20081;-80
2021/01/12 03:16:53;;;;;;;1.65;0.50;;;;;;;;;;5111782;28;20024;-80
2021/01/12 03:19:19;;;;;;;0.75;0.40;;;;;;;;;;5092949;28;20129;-79
2021/01/12 03:21:45;;;;;;;2.50;0.38;;;;;;;;;;5110854;28;20027;-79
2021/01/12 03:24:11;;;;;;;1.73;0.40;;;;;;;;;;5110922;28;20023;-79
2021/01/12 03:26:37;;;;;;;1.90;0.30;;;;;;;;;;5110850;28;20022;-80
2021/01/12 03:29:04;;;;;;;1.42;0.40;;;;;;;;;;5110590;28;20403;-80
2021/01/12 03:31:30;;;;;;;1.70;0.43;;;;;;;;;;5111275;28;20089;-80
2021/01/12 03:33:56;;;;;;;1.10;0.40;;;;;;;;;;5112097;28;20020;-80
2021/01/12 03:36:22;;;;;;;1.63;0.40;;;;;;;;;;5114356;28;20028;-79
2021/01/12 03:38:49;;;;;;;2.13;0.50;;;;;;;;;;5114384;28;20498;-79
2021/01/12 03:41:15;;;;;;;0.82;0.20;;;;;;;;;;5114451;28;20115;-80
2021/01/12 03:43:41;;;;;;;2.85;0.40;;;;;;;;;;5113922;28;20406;-79
2021/01/12 03:46:07;;;;;;;0.63;0.25;;;;;;;;;;5114442;28;20482;-79
2021/01/12 03:48:33;;;;;;;1.05;0.50;;;;;;;;;;5113921;28;20105;-79
2021/01/12 03:50:59;;;;;;;2.50;0.60;;;;;;;;;;5114520;28;20019;-79
2021/01/12 03:53:25;;;;;;;1.95;0.40;;;;;;;;;;5114124;28;20514;-79
2021/01/12 03:55:51;;;;;;;1.65;0.30;;;;;;;;;;5113747;28;20502;-78
2021/01/12 03:58:18;;;;;;;1.23;0.32;;;;;;;;;;5113788;28;20012;-79
2021/01/12 04:00:44;;;;;;;1.33;0.30;;;;;;;;;;5113722;28;20026;-78
2021/01/12 04:03:10;;;;;;;1.65;0.57;;;;;;;;;;5113999;28;20020;-78
2021/01/12 04:05:38;;;;;;;2.15;0.45;;;;;;;;;;5113314;28;20111;-79
2021/01/12 04:08:04;;;;;;;1.23;0.38;;;;;;;;;;5113944;28;20024;-80
2021/01/12 04:10:31;;;;;;;2.00;0.40;;;;;;;;;;5115588;28;20032;-80
2021/01/12 04:12:59;;;;;;;1.27;0.40;;;;;;;;;;5116468;28;20083;-80
2021/01/12 04:15:25;;;;;;;1.58;0.30;;;;;;;;;;5114133;28;20027;-80
2021/01/12 04:17:52;;;;;;;1.88;0.47;;;;;;;;;;5095119;28;20773;-81
2021/01/12 04:20:18;;;;;;;0.60;0.35;;;;;;;;;;5113636;28;20207;-80
2021/01/12 04:22:44;;;;;;;0.80;0.40;;;;;;;;;;5113249;28;20024;-79
2021/01/12 04:25:11;;;;;;;1.50;0.40;;;;;;;;;;5113608;28;20039;-79
2021/01/12 04:27:37;;;;;;;0.82;0.40;;;;;;;;;;5113303;28;20116;-78
2021/01/12 04:30:04;;;;;;;1.23;0.40;;;;;;;;;;5113504;28;20500;-79
2021/01/12 04:32:30;;;;;;;1.45;0.40;;;;;;;;;;5113950;28;20024;-78
2021/01/12 04:34:56;;;;;;;0.75;0.30;;;;;;;;;;5112705;28;20031;-80
2021/01/12 04:37:22;;;;;;;0.75;0.30;;;;;;;;;;5113082;28;20028;-79
2021/01/12 04:39:48;;;;;;;1.58;0.50;;;;;;;;;;5112805;28;20033;-79
2021/01/12 04:42:14;;;;;;;0.93;0.35;;;;;;;;;;5113239;28;20024;-79
2021/01/12 04:44:40;;;;;;;2.10;0.60;;;;;;;;;;5112538;28;20038;-79
2021/01/12 04:47:10;;;;;;;2.05;0.52;;;;;;;;;;5094775;28;20028;-79
2021/01/12 04:49:36;;;;;;;0.68;0.30;;;;;;;;;;5094333;28;20118;-80
2021/01/12 04:52:03;;;;;;;2.13;0.65;;;;;;;;;;5113139;28;20039;-80
2021/01/12 04:54:32;;;;;;;1.05;0.80;;;;;;;;;;5113366;28;20494;-80
2021/01/12 04:56:59;;;;;;;1.77;0.43;;;;;;;;;;5113218;28;20038;-80
2021/01/12 04:59:29;;;;;;;2.28;0.50;;;;;;;;;;5112776;28;20020;-79
2021/01/12 05:01:56;;;;;;;1.90;0.50;;;;;;;;;;5112451;28;20023;-79
2021/01/12 05:04:23;;;;;;;2.05;0.52;;;;;;;;;;5112471;28;20035;-80
2021/01/12 05:06:49;;;;;;;1.75;0.40;;;;;;;;;;5093985;28;20033;-80
2021/01/12 05:09:21;;;;;;;1.88;0.45;;;;;;;;;;5112679;28;20114;-80
2021/01/12 05:11:48;;;;;;;0.95;0.35;;;;;;;;;;5112246;28;20110;-79
2021/01/12 05:14:15;;;;;;;2.17;0.50;;;;;;;;;;5112394;28;20031;-80
2021/01/12 05:16:48;;;;;;;1.73;0.50;;;;;;;;;;5112296;28;20125;-80
2021/01/12 05:19:21;;;;;;;1.40;0.50;;;;;;;;;;5112365;28;20032;-80
2021/01/12 05:21:48;;;;;;;2.63;0.52;;;;;;;;;;5112189;28;20381;-79
2021/01/12 05:24:19;;;;;;;2.13;0.65;;;;;;;;;;5112549;28;20402;-80
2021/01/12 05:26:45;;;;;;;1.70;0.30;;;;;;;;;;5112104;28;20039;-80
2021/01/12 05:29:11;;;;;;;2.05;0.65;;;;;;;;;;5112388;28;20042;-80
2021/01/12 05:31:38;;;;;;;1.58;0.47;;;;;;;;;;5112216;28;20023;-79
2021/01/12 05:34:08;;;;;;;1.75;0.50;;;;;;;;;;5093626;28;20065;-80
2021/01/12 05:36:35;;;;;;;1.30;0.40;;;;;;;;;;5093714;28;20031;-80
2021/01/12 05:39:02;;;;;;;1.23;0.30;;;;;;;;;;5112670;28;20409;-79
2021/01/12 05:41:29;;;;;;;2.28;0.60;;;;;;;;;;5112445;28;20024;-79
2021/01/12 05:43:56;;;;;;;1.60;0.50;;;;;;;;;;5111701;28;20032;-79
2021/01/12 05:46:22;;;;;;;2.60;0.63;;;;;;;;;;5111833;28;20548;-79
2021/01/12 05:48:49;;;;;;;2.72;0.63;;;;;;;;;;5093782;28;20068;-79
2021/01/12 05:51:15;;;;;;;1.95;0.57;;;;;;;;;;5112074;28;20024;-80
2021/01/12 05:53:48;;;;;;;2.40;0.60;;;;;;;;;;5111625;28;20020;-79
2021/01/12 05:56:21;;;;;;;1.25;0.47;;;;;;;;;;5092961;28;20073;-79
2021/01/12 05:58:48;;;;;;;2.05;0.50;;;;;;;;;;5111460;28;20024;-80
2021/01/12 06:01:17;;;;;;;1.65;0.55;;;;;;;;;;5110999;28;20518;-78
2021/01/12 06:03:43;;;;;;;1.10;0.30;;;;;;;;;;5111077;28;20122;-79
2021/01/12 06:06:09;;;;;;;1.65;0.85;;;;;;;;;;5092517;28;20031;-79
2021/01/12 06:08:36;;;;;;;1.73;0.40;;;;;;;;;;5110597;28;20039;-78
2021/01/12 06:11:07;;;;;;;2.92;0.50;;;;;;;;;;5092799;28;20020;-77
2021/01/12 06:13:35;;;;;;;1.20;0.50;;;;;;;;;;5111120;28;20394;-79
2021/01/12 06:16:05;;;;;;;1.73;0.50;;;;;;;;;;5111800;28;20020;-77
2021/01/12 06:18:34;;;;;;;0.90;0.30;;;;;;;;;;5111758;28;20069;-78
2021/01/12 06:21:16;;;;;;;2.42;0.60;;;;;;;;;;5111571;28;20412;-79
2021/01/12 06:23:47;;;;;;;1.40;0.50;;;;;;;;;;5110979;28;20093;-78
2021/01/12 06:26:14;;;;;;;1.65;0.50;;;;;;;;;;5111320;28;20425;-78
2021/01/12 06:28:43;;;;;;;1.75;0.57;;;;;;;;;;5111282;28;20063;-78
2021/01/12 06:31:10;;;;;;;1.52;0.60;;;;;;;;;;5110887;28;20024;-79
2021/01/12 06:33:36;;;;;;;1.40;0.40;;;;;;;;;;5110388;28;20371;-80
2021/01/12 06:36:03;;;;;;;1.58;0.40;;;;;;;;;;5110640;28;20059;-77
2021/01/12 06:38:29;;;;;;;2.78;0.60;;;;;;;;;;5111478;28;20028;-77
2021/01/12 06:40:58;;;;;;;3.00;0.40;;;;;;;;;;5110933;28;20055;-77
2021/01/12 06:43:25;;;;;;;2.05;0.47;;;;;;;;;;5111587;28;20041;-76
2021/01/12 06:45:52;;;;;;;1.33;0.40;;;;;;;;;;5110983;28;20387;-78
2021/01/12 06:48:18;;;;;;;3.92;0.68;;;;;;;;;;5110866;28;20093;-79
2021/01/12 06:50:46;;;;;;;1.73;0.50;;;;;;;;;;5111083;28;20364;-76
2021/01/12 06:53:16;;;;;;;2.45;0.52;;;;;;;;;;5091530;28;20028;-76
2021/01/12 06:55:42;;;;;;;2.60;0.55;;;;;;;;;;5111038;28;20074;-77
2021/01/12 06:58:11;;;;;;;4.95;0.70;;;;;;;;;;5111365;28;20024;-76
2021/01/12 07:00:37;;;;;;;2.53;0.40;;;;;;;;;;5091607;28;20024;-76
2021/01/12 07:03:04;;;;;;;7.57;0.40;;;;;;;;;;5092048;28;20028;-76
2021/01/12 07:05:37;;;;;;;4.35;0.80;;;;;;;;;;5110922;28;20032;-77
2021/01/12 07:08:07;;;;;;;11.50;1.60;;;;;;;;;;5113139;28;20023;-75
2021/01/12 07:10:39;;;;;;;7.75;1.83;;;;;;;;;;5114352;28;20038;-75
2021/01/12 07:13:06;;;;;;;11.48;1.73;;;;;;;;;;5114880;28;20479;-75
2021/01/12 07:15:41;;;;;;;9.82;1.40;;;;;;;;;;5114862;28;20072;-75
2021/01/12 07:18:07;;;;;;;6.72;1.15;;;;;;;;;;5094392;28;20111;-76
2021/01/12 07:20:36;;;;;;;8.35;1.55;;;;;;;;;;5076129;28;20106;-75
2021/01/12 07:23:03;;;;;;;4.97;1.35;;;;;;;;;;5114377;28;20107;-75
2021/01/12 07:25:30;;;;;;;5.05;1.52;;;;;;;;;;5114510;28;20023;-74
2021/01/12 07:28:00;;;;;;;6.50;1.10;;;;;;;;;;5114097;28;20099;-75
2021/01/12 07:30:27;;;;;;;6.13;1.13;;;;;;;;;;5114199;28;20089;-75
2021/01/12 07:33:06;;;;;;;4.80;1.20;;;;;;;;;;5114117;28;20023;-76
2021/01/12 07:35:33;;;;;;;9.57;0.98;;;;;;;;;;5113314;28;20406;-76
2021/01/12 07:37:59;;;;;;;4.35;1.02;;;;;;;;;;5114803;28;20019;-75
2021/01/12 07:40:26;;;;;;;5.38;0.70;;;;;;;;;;5113158;28;20538;-74
2021/01/12 07:42:52;;;;;;;5.90;1.10;;;;;;;;;;5113926;28;20515;-74
2021/01/12 07:45:19;;;;;;;8.15;0.98;;;;;;;;;;5114425;28;20391;-79
2021/01/12 07:47:48;;;;;;;8.95;1.23;;;;;;;;;;5113646;28;20106;-78
2021/01/12 07:50:15;;;;;;;2.78;0.60;;;;;;;;;;5111359;28;20039;-80
2021/01/12 07:52:41;;;;;;;5.78;1.23;;;;;;;;;;5111213;28;20039;-74
2021/01/12 07:55:07;;;;;;;3.03;0.77;;;;;;;;;;5113391;28;20376;-75
2021/01/12 07:57:34;;;;;;;3.78;1.30;;;;;;;;;;5113722;28;20032;-75
2021/01/12 08:00:00;;;;;;;3.20;0.75;;;;;;;;;;5113868;28;20052;-77
2021/01/12 08:02:26;;;;;;;5.97;1.00;;;;;;;;;;5113564;28;20023;-75
2021/01/12 08:04:53;;;;;;;4.88;1.00;;;;;;;;;;5113735;28;20338;-76
2021/01/12 08:07:25;;;;;;;4.28;0.80;;;;;;;;;;5113931;28;20034;-76
2021/01/12 08:09:53;;;;;;;4.85;1.50;;;;;;;;;;5113431;28;20046;-74
2021/01/12 08:12:21;;;;;;;4.43;0.90;;;;;;;;;;5113366;28;20028;-76
2021/01/12 08:14:47;;;;;;;3.30;0.70;;;;;;;;;;5113672;28;20027;-77
2021/01/12 08:17:18;;;;;;;3.08;0.90;;;;;;;;;;5113267;28;20019;-76
2021/01/12 08:19:45;;;;;;;3.78;0.90;;;;;;;;;;5112620;28;20020;-75
2021/01/12 08:22:16;;;;;;;4.53;1.02;;;;;;;;;;5112885;28;20514;-76
2021/01/12 08:24:43;;;;;;;5.38;0.70;;;;;;;;;;5113500;28;20425;-75
2021/01/12 08:27:09;;;;;;;4.03;1.08;;;;;;;;;;5113755;28;20064;-76
2021/01/12 08:29:35;;;;;;;6.97;1.25;;;;;;;;;;5112493;28;20039;-76
2021/01/12 08:32:08;;;;;;;4.18;1.08;;;;;;;;;;5094136;28;20069;-73
2021/01/12 08:34:39;;;;;;;4.30;1.08;;;;;;;;;;5112498;28;20031;-74
2021/01/12 08:37:07;;;;;;;4.50;1.13;;;;;;;;;;5113410;28;20020;-75
2021/01/12 08:39:33;;;;;;;3.50;1.10;;;;;;;;;;5112873;28;20250;-75
2021/01/12 08:42:00;;;;;;;8.48;1.08;;;;;;;;;;5113689;28;20118;-73
2021/01/12 08:44:27;;;;;;;6.47;1.05;;;;;;;;;;5112685;28;20141;-74
2021/01/12 08:46:54;;;;;;;4.18;0.90;;;;;;;;;;5111805;28;20102;-75
2021/01/12 08:49:29;;;;;;;4.38;0.88;;;;;;;;;;5112051;28;20071;-77
2021/01/12 08:51:56;;;;;;;3.40;0.80;;;;;;;;;;5112318;28;20395;-75
2021/01/12 08:54:22;;;;;;;4.57;1.30;;;;;;;;;;5112828;28;20027;-75
2021/01/12 08:56:58;;;;;;;2.38;0.88;;;;;;;;;;5112923;27;20055;-75
2021/01/12 08:59:24;;;;;;;;;;;;;;;;;;5133868;27;20026;-74
2021/01/12 09:01:50;;;;;;;3.08;1.02;;;;;;;;;;5121432;27;19908;-74
2021/01/12 09:04:16;;;;;;;3.40;1.10;;;;;;;;;;5112908;28;20024;-75
2021/01/12 09:06:42;;;;;;;4.35;1.10;;;;;;;;;;5110988;28;20382;-75
2021/01/12 09:09:09;;;;;;;6.90;1.35;;;;;;;;;;5114571;27;20591;-75
2021/01/12 09:11:39;;;;;;;4.82;1.10;;;;;;;;;;5124356;27;20032;-76
2021/01/12 09:14:06;;;;;;;5.50;1.10;;;;;;;;;;5113500;27;20031;-75
2021/01/12 09:16:33;;;;;;;2.67;0.68;;;;;;;;;;5092310;28;20062;-73
2021/01/12 09:18:59;;;;;;;6.63;1.20;;;;;;;;;;5092988;28;20020;-73
2021/01/12 09:21:25;;;;;;;4.63;1.15;;;;;;;;;;5092660;28;20078;-74
2021/01/12 09:23:51;;;;;;;4.75;1.35;;;;;;;;;;5092273;28;20024;-73
2021/01/12 09:26:20;;;;;;;4.18;1.02;;;;;;;;;;5092991;28;20028;-73
2021/01/12 09:28:46;;;;;;;6.00;1.20;;;;;;;;;;5091890;28;20514;-72
2021/01/12 09:31:13;;;;;;;5.45;1.00;;;;;;;;;;5092707;28;20027;-73
2021/01/12 09:33:44;;;;;;;3.97;1.20;;;;;;;;;;5100841;28;20019;-73
2021/01/12 09:36:12;;;;;;;4.55;1.13;;;;;;;;;;5111596;28;20030;-73
2021/01/12 09:38:39;;;;;;;5.75;1.20;;;;;;;;;;5111964;28;20384;-74
2021/01/12 09:41:05;;;;;;;5.05;1.02;;;;;;;;;;5093669;28;20083;-73
2021/01/12 09:43:32;;;;;;;4.03;1.02;;;;;;;;;;5111756;28;20058;-75
2021/01/12 09:45:58;;;;;;;4.35;1.00;;;;;;;;;;5109993;28;20028;-74
2021/01/12 09:48:24;;;;;;;6.20;1.52;;;;;;;;;;5093859;28;20076;-77
2021/01/12 09:50:50;;;;;;;3.42;0.90;;;;;;;;;;5103220;28;20034;-75
2021/01/12 09:53:18;;;;;;;3.15;0.82;;;;;;;;;;5110781;28;20463;-77
2021/01/12 09:55:44;;;;;;;3.80;1.00;;;;;;;;;;5112327;27;20118;-77
2021/01/12 09:58:11;;;;;;;4.15;0.85;;;;;;;;;;5112135;28;20064;-75
2021/01/12 10:00:37;;;;;;;4.32;1.35;;;;;;;;;;5110967;28;20051;-77
2021/01/12 10:03:06;;;;;;;4.50;1.10;;;;;;;;;;5121238;27;20046;-77
2021/01/12 10:05:36;;;;;;;4.50;1.10;;;;;;;;;;5102026;28;20019;-77
2021/01/12 10:08:03;;;;;;;2.75;0.70;;;;;;;;;;5100305;28;20023;-76
2021/01/12 10:10:29;;;;;;;2.20;0.70;;;;;;;;;;5091717;28;20019;-76
2021/01/12 10:12:55;;;;;;;2.38;0.82;;;;;;;;;;5091194;28;20024;-78
2021/01/12 10:15:21;;;;;;;3.17;0.82;;;;;;;;;;5091924;28;20024;-78
2021/01/12 10:17:47;;;;;;;4.25;1.35;;;;;;;;;;5103331;28;20050;-77
2021/01/12 10:20:13;;;;;;;3.28;0.95;;;;;;;;;;5110761;28;20024;-79
2021/01/12 10:22:39;;;;;;;4.85;1.00;;;;;;;;;;5111397;28;20473;-78
2021/01/12 10:25:06;;;;;;;3.15;0.80;;;;;;;;;;5109723;28;20024;-76
2021/01/12 10:27:33;;;;;;;3.03;0.82;;;;;;;;;;5111802;28;20019;-78
2021/01/12 10:29:59;;;;;;;2.85;0.90;;;;;;;;;;5111234;28;20027;-77
2021/01/12 10:32:26;;;;;;;1.90;0.60;;;;;;;;;;5110836;28;20023;-79
2021/01/12 10:34:52;;;;;;;1.88;0.65;;;;;;;;;;5111384;28;20080;-79
2021/01/12 10:37:18;;;;;;;2.60;0.80;;;;;;;;;;5111285;28;20079;-78
2021/01/12 10:39:44;;;;;;;2.50;0.80;;;;;;;;;;5109927;28;20072;-73
2021/01/12 10:42:10;;;;;;;2.33;0.77;;;;;;;;;;5091480;28;20046;-76
2021/01/12 10:44:36;;;;;;;4.47;0.82;;;;;;;;;;5094943;28;20020;-76
2021/01/12 10:47:02;;;;;;;4.63;0.80;;;;;;;;;;5095177;28;20024;-75
2021/01/12 10:49:29;;;;;;;4.32;1.10;;;;;;;;;;5110955;28;20510;-72
2021/01/12 10:51:59;;;;;;;2.25;0.70;;;;;;;;;;5100411;28;20114;-79
2021/01/12 10:54:25;;;;;;;2.25;0.70;;;;;;;;;;5105485;27;20108;-76
2021/01/12 10:56:51;;;;;;;2.40;0.55;;;;;;;;;;5114501;28;20035;-74
2021/01/12 10:59:17;;;;;;;2.50;0.60;;;;;;;;;;5115081;28;20031;-74
2021/01/12 11:01:43;;;;;;;2.47;0.80;;;;;;;;;;5115050;28;20051;-75
2021/01/12 11:04:09;;;;;;;2.25;0.70;;;;;;;;;;5108092;28;20012;-78
2021/01/12 11:06:40;;;;;;;2.63;0.60;;;;;;;;;;5094585;28;20443;-76
2021/01/12 11:09:06;;;;;;;2.00;0.70;;;;;;;;;;5094493;28;20376;-75
2021/01/12 11:11:36;;;;;;;2.92;0.70;;;;;;;;;;5094503;28;20025;-74
2021/01/12 11:14:03;;;;;;;3.15;0.57;;;;;;;;;;5095652;28;20015;-76
2021/01/12 11:16:39;;;;;;;3.20;0.95;;;;;;;;;;5094784;28;20028;-76
2021/01/12 11:19:05;;;;;;;;;;;;;;;;;;5107378;28;20020;-77
2021/01/12 11:21:31;;;;;;;3.10;0.70;;;;;;;;;;5096506;28;19961;-73
2021/01/12 11:23:58;;;;;;;2.88;0.70;;;;;;;;;;5100773;28;20391;-76
2021/01/12 11:26:30;;;;;;;2.22;0.52;;;;;;;;;;5113998;27;20024;-78
2021/01/12 11:28:57;;;;;;;3.10;0.55;;;;;;;;;;5134887;27;20031;-78
2021/01/12 11:31:23;;;;;;;2.67;0.60;;;;;;;;;;5125339;27;20027;-78
2021/01/12 11:33:49;;;;;;;2.65;0.80;;;;;;;;;;5113223;28;20475;-79
2021/01/12 11:36:16;;;;;;;7.53;0.70;;;;;;;;;;5113698;28;20023;-79
2021/01/12 11:38:42;;;;;;;1.88;0.50;;;;;;;;;;5114554;28;20107;-79
2021/01/12 11:41:09;;;;;;;2.10;0.70;;;;;;;;;;5113407;28;20113;-79
2021/01/12 11:43:35;;;;;;;2.92;0.70;;;;;;;;;;5124416;27;20375;-79
2021/01/12 11:46:01;;;;;;;2.10;0.80;;;;;;;;;;5135062;27;20027;-78
2021/01/12 11:48:27;;;;;;;2.50;0.80;;;;;;;;;;5134986;27;20030;-78
2021/01/12 11:50:53;;;;;;;2.33;0.60;;;;;;;;;;5134504;27;20038;-78
2021/01/12 11:53:19;;;;;;;1.90;0.70;;;;;;;;;;5098622;28;20047;-78
2021/01/12 11:55:45;;;;;;;0.95;0.50;;;;;;;;;;5113239;28;20031;-78
2021/01/12 11:58:11;;;;;;;3.30;0.70;;;;;;;;;;5095862;28;20027;-77
2021/01/12 12:00:38;;;;;;;3.35;1.23;;;;;;;;;;5113920;28;20387;-78
2021/01/12 12:03:05;;;;;;;3.45;0.82;;;;;;;;;;5091106;28;20092;-78
2021/01/12 12:05:31;;;;;;;6.40;2.25;;;;;;;;;;5113932;28;20030;-78
2021/01/12 12:07:57;;;;;;;5.53;1.75;;;;;;;;;;5114265;28;20153;-77
2021/01/12 12:10:23;;;;;;;5.80;1.90;;;;;;;;;;5112840;28;20085;-77
2021/01/12 12:12:49;;;;;;;5.63;2.28;;;;;;;;;;5113238;28;20015;-77
2021/01/12 12:15:16;;;;;;;5.13;1.92;;;;;;;;;;5095499;28;20103;-78
2021/01/12 12:17:42;;;;;;;4.78;1.80;;;;;;;;;;5113328;28;20020;-78
2021/01/12 12:20:08;;;;;;;4.32;1.67;;;;;;;;;;5113573;28;20481;-77
2021/01/12 12:22:34;;;;;;;5.63;1.55;;;;;;;;;;5113491;28;20020;-78
2021/01/12 12:25:00;;;;;;;3.90;1.60;;;;;;;;;;5113930;28;20019;-77
2021/01/12 12:27:26;;;;;;;4.25;1.20;;;;;;;;;;5113490;28;20027;-78
2021/01/12 12:29:52;;;;;;;3.72;1.42;;;;;;;;;;5113300;28;20415;-77
2021/01/12 12:32:21;;;;;;;4.22;1.30;;;;;;;;;;5113109;28;20020;-76
2021/01/12 12:34:48;;;;;;;2.90;0.95;;;;;;;;;;5112914;28;20024;-77
2021/01/12 12:37:14;;;;;;;3.08;1.42;;;;;;;;;;5113457;28;20020;-77
2021/01/12 12:39:40;;;;;;;3.53;1.10;;;;;;;;;;5113065;28;20028;-76
2021/01/12 12:42:06;;;;;;;2.63;0.98;;;;;;;;;;5113175;28;20028;-76
2021/01/12 12:44:32;;;;;;;2.33;1.00;;;;;;;;;;5113485;28;20030;-77
2021/01/12 12:46:59;;;;;;;4.70;0.93;;;;;;;;;;5113553;28;20034;-74
2021/01/12 12:49:25;;;;;;;2.03;0.80;;;;;;;;;;5112690;28;20046;-76
2021/01/12 12:51:51;;;;;;;1.92;0.63;;;;;;;;;;5113123;28;20015;-75
2021/01/12 12:54:19;;;;;;;3.20;0.80;;;;;;;;;;5112764;28;20441;-75
2021/01/12 12:56:45;;;;;;;2.95;0.80;;;;;;;;;;5112290;28;20461;-79
2021/01/12 12:59:11;;;;;;;1.33;0.63;;;;;;;;;;5113087;28;20399;-74
2021/01/12 13:01:37;;;;;;;2.58;0.88;;;;;;;;;;5111923;28;20020;-75
2021/01/12 13:04:04;;;;;;;2.83;0.65;;;;;;;;;;5112843;28;20484;-75
2021/01/12 13:06:30;;;;;;;3.38;0.70;;;;;;;;;;5112957;28;20020;-75
2021/01/12 13:08:56;;;;;;;1.08;0.60;;;;;;;;;;5112393;28;20030;-75
2021/01/12 13:11:22;;;;;;;3.60;0.60;;;;;;;;;;5094426;28;20027;-75
2021/01/12 13:13:49;;;;;;;3.58;0.95;;;;;;;;;;5112234;28;20023;-75
2021/01/12 13:16:15;;;;;;;1.52;0.70;;;;;;;;;;5112762;28;20509;-76
2021/01/12 13:18:45;;;;;;;1.75;0.60;;;;;;;;;;5112393;28;20031;-75
2021/01/12 13:21:11;;;;;;;2.03;0.52;;;;;;;;;;5112439;28;20023;-75
2021/01/12 13:23:37;;;;;;;1.42;0.60;;;;;;;;;;5112378;28;20027;-75
2021/01/12 13:26:04;;;;;;;3.75;1.00;;;;;;;;;;5117243;27;20110;-77
2021/01/12 13:28:32;;;;;;;12.23;1.20;;;;;;;;;;5105964;27;20028;-77
2021/01/12 13:30:58;;;;;;;4.93;0.95;;;;;;;;;;5118359;27;20415;-78
2021/01/12 13:33:24;;;;;;;8.35;1.05;;;;;;;;;;5093569;28;20042;-80
2021/01/12 13:35:50;;;;;;;3.58;0.80;;;;;;;;;;5111849;28;20107;-79
2021/01/12 13:38:16;;;;;;;2.38;0.43;;;;;;;;;;5111241;28;20059;-77
2021/01/12 13:40:42;;;;;;;4.32;0.60;;;;;;;;;;5119751;27;20439;-80
2021/01/12 13:43:08;;;;;;;4.78;0.50;;;;;;;;;;5117524;27;20059;-78
2021/01/12 13:45:34;;;;;;;2.00;0.70;;;;;;;;;;5111627;28;20043;-83
2021/01/12 13:48:01;;;;;;;3.95;1.00;;;;;;;;;;5112532;28;20102;-82
2021/01/12 13:50:28;;;;;;;2.80;0.40;;;;;;;;;;5092765;28;20055;-75
2021/01/12 13:52:54;;;;;;;3.70;0.60;;;;;;;;;;5112649;27;20015;-76
2021/01/12 13:55:21;;;;;;;2.92;0.50;;;;;;;;;;5111728;28;20035;-76
2021/01/12 13:58:06;;;;;;;4.93;1.08;;;;;;;;;;5111775;28;20047;-75
2021/01/12 14:00:33;;;;;;;3.13;0.68;;;;;;;;;;5111885;28;20019;-76
2021/01/12 14:02:59;;;;;;;3.13;0.60;;;;;;;;;;5112199;28;20077;-76
2021/01/12 14:05:26;;;;;;;2.28;0.47;;;;;;;;;;5111954;28;20084;-78
2021/01/12 14:07:53;;;;;;;4.47;0.90;;;;;;;;;;5111173;28;20035;-80
2021/01/12 14:10:19;;;;;;;3.05;0.85;;;;;;;;;;5111192;28;20035;-78
2021/01/12 14:12:48;;;;;;;2.00;0.88;;;;;;;;;;5111163;28;20493;-77
2021/01/12 14:15:15;;;;;;;1.48;0.50;;;;;;;;;;5123108;27;20085;-78
2021/01/12 14:17:47;;;;;;;4.78;0.63;;;;;;;;;;5092395;28;20020;-75
2021/01/12 14:20:14;;;;;;;3.28;0.70;;;;;;;;;;5111181;28;20045;-75
2021/01/12 14:22:41;;;;;;;2.95;0.65;;;;;;;;;;5110905;28;20031;-77
2021/01/12 14:25:07;;;;;;;3.25;0.55;;;;;;;;;;5115730;28;20032;-77
2021/01/12 14:27:37;;;;;;;1.83;0.40;;;;;;;;;;5111376;28;20823;-76
2021/01/12 14:30:04;;;;;;;3.28;0.60;;;;;;;;;;5111656;28;20059;-75
2021/01/12 14:32:30;;;;;;;3.58;0.50;;;;;;;;;;5111905;28;20032;-76
2021/01/12 14:34:56;;;;;;;1.25;0.50;;;;;;;;;;5105192;28;20495;-76
2021/01/12 14:37:24;;;;;;;1.98;0.60;;;;;;;;;;5111484;28;20020;-77
2021/01/12 14:39:50;;;;;;;1.80;0.55;;;;;;;;;;5127244;28;20395;-76
2021/01/12 14:42:17;;;;;;;1.50;0.47;;;;;;;;;;5132115;28;20478;-78